createdAt,value
2022-10-11T00:00:37.152Z,16.97
2022-10-11T00:03:03.947Z,16.89
2022-10-11T00:05:30.892Z,16.94
2022-10-11T00:07:57.471Z,16.94
2022-10-11T00:10:24.317Z,16.85
2022-10-11T00:12:52.507Z,16.90
2022-10-11T00:15:21.607Z,16.82
2022-10-11T00:17:48.707Z,16.84
2022-10-11T00:20:15.206Z,16.81
2022-10-11T00:22:42.458Z,16.84
2022-10-11T00:25:10.483Z,16.78
2022-10-11T00:27:37.568Z,16.77
2022-10-11T00:30:06.195Z,16.76
2022-10-11T00:32:34.156Z,16.72
2022-10-11T00:35:06.275Z,16.73
2022-10-11T00:37:34.183Z,16.74
2022-10-11T00:40:00.678Z,16.72
2022-10-11T00:42:27.346Z,16.70
2022-10-11T00:45:31.663Z,16.72
2022-10-11T00:48:04.969Z,16.72
2022-10-11T00:50:33.862Z,16.69
2022-10-11T00:53:03.790Z,16.68
2022-10-11T00:55:33.371Z,16.70
2022-10-11T00:58:00.143Z,16.68
2022-10-11T01:00:26.746Z,16.68
2022-10-11T01:02:54.514Z,16.68
2022-10-11T01:05:29.987Z,16.66
2022-10-11T01:07:59.074Z,16.66
2022-10-11T01:10:26.095Z,16.60
2022-10-11T01:13:05.587Z,16.65
2022-10-11T01:15:42.535Z,16.60
2022-10-11T01:18:22.198Z,16.59
2022-10-11T01:21:14.601Z,16.58
2022-10-11T01:24:22.476Z,16.52
2022-10-11T01:27:02.539Z,16.53
2022-10-11T01:29:53.921Z,16.53
2022-10-11T01:32:45.010Z,16.47
2022-10-11T01:35:37.914Z,16.45
2022-10-11T01:38:11.351Z,16.42
2022-10-11T01:40:44.047Z,16.41
2022-10-11T01:43:10.679Z,16.42
2022-10-11T01:45:37.420Z,16.34
2022-10-11T01:48:10.542Z,16.28
2022-10-11T01:50:37.076Z,16.31
2022-10-11T01:53:35.875Z,16.31
2022-10-11T01:56:06.186Z,16.30
2022-10-11T01:59:00.975Z,16.22
2022-10-11T02:01:47.079Z,16.18
2022-10-11T02:04:33.839Z,16.27
2022-10-11T02:07:23.526Z,16.27
2022-10-11T02:09:56.669Z,16.25
2022-10-11T02:12:28.167Z,16.25
2022-10-11T02:14:56.647Z,16.24
2022-10-11T02:17:27.654Z,16.24
2022-10-11T02:19:56.841Z,16.18
2022-10-11T02:22:28.054Z,16.19
2022-10-11T02:24:57.549Z,16.16
2022-10-11T02:27:26.923Z,16.18
2022-10-11T02:29:54.815Z,16.17
2022-10-11T02:32:23.657Z,16.15
2022-10-11T02:34:55.439Z,16.15
2022-10-11T02:37:51.150Z,16.16
2022-10-11T02:40:21.121Z,16.17
2022-10-11T02:43:03.393Z,16.13
2022-10-11T02:45:48.907Z,16.08
2022-10-11T02:48:15.747Z,16.07
2022-10-11T02:50:42.370Z,16.06
2022-10-11T02:53:09.652Z,16.06
2022-10-11T02:55:36.283Z,15.99
2022-10-11T02:58:02.925Z,16.02
2022-10-11T03:00:29.962Z,15.98
2022-10-11T03:02:56.550Z,15.99
2022-10-11T03:05:23.058Z,15.97
2022-10-11T03:07:49.568Z,15.97
2022-10-11T03:10:16.146Z,15.96
2022-10-11T03:12:42.788Z,15.97
2022-10-11T03:15:09.723Z,15.93
2022-10-11T03:17:37.315Z,15.94
2022-10-11T03:20:06.048Z,15.92
2022-10-11T03:22:32.590Z,15.94
2022-10-11T03:25:03.700Z,15.93
2022-10-11T03:27:31.597Z,15.94
2022-10-11T03:29:58.135Z,15.91
2022-10-11T03:32:24.896Z,15.90
2022-10-11T03:34:51.440Z,15.90
2022-10-11T03:37:18.205Z,15.93
2022-10-11T03:39:45.637Z,15.88
2022-10-11T03:42:13.172Z,15.89
2022-10-11T03:44:39.829Z,15.86
2022-10-11T03:47:06.383Z,15.88
2022-10-11T03:49:32.865Z,15.90
2022-10-11T03:51:59.362Z,15.86
2022-10-11T03:54:26.203Z,15.84
2022-10-11T03:56:53.014Z,15.81
2022-10-11T03:59:19.549Z,15.81
2022-10-11T04:01:46.126Z,15.81
2022-10-11T04:04:12.730Z,15.79
2022-10-11T04:06:39.258Z,15.81
2022-10-11T04:09:05.761Z,15.78
2022-10-11T04:11:32.685Z,15.77
2022-10-11T04:13:59.263Z,15.71
2022-10-11T04:16:25.889Z,15.68
2022-10-11T04:18:52.512Z,15.63
2022-10-11T04:21:19.070Z,15.57
2022-10-11T04:23:45.586Z,15.62
2022-10-11T04:26:12.123Z,15.57
2022-10-11T04:28:38.642Z,15.59
2022-10-11T04:31:06.572Z,15.53
2022-10-11T04:33:33.095Z,15.54
2022-10-11T04:35:59.702Z,15.56
2022-10-11T04:38:26.230Z,15.55
2022-10-11T04:40:52.791Z,15.53
2022-10-11T04:43:19.584Z,15.55
2022-10-11T04:45:46.143Z,15.53
2022-10-11T04:48:13.931Z,15.59
2022-10-11T04:50:40.474Z,15.60
2022-10-11T04:53:07.540Z,15.56
2022-10-11T04:55:34.143Z,15.54
2022-10-11T04:58:02.074Z,15.55
2022-10-11T05:00:28.626Z,15.55
2022-10-11T05:02:55.231Z,15.54
2022-10-11T05:05:21.773Z,15.62
2022-10-11T05:07:48.359Z,15.62
2022-10-11T05:10:14.984Z,15.61
2022-10-11T05:12:41.498Z,15.56
2022-10-11T05:15:08.702Z,15.57
2022-10-11T05:17:35.652Z,15.54
2022-10-11T05:20:02.153Z,15.51
2022-10-11T05:22:28.717Z,15.51
2022-10-11T05:24:55.378Z,15.52
2022-10-11T05:27:21.886Z,15.49
2022-10-11T05:29:48.400Z,15.53
2022-10-11T05:32:14.925Z,15.52
2022-10-11T05:34:41.456Z,15.53
2022-10-11T05:37:07.973Z,15.53
2022-10-11T05:39:34.489Z,15.52
2022-10-11T05:42:00.990Z,15.58
2022-10-11T05:44:27.639Z,15.57
2022-10-11T05:46:54.135Z,15.60
2022-10-11T05:49:20.659Z,15.60
2022-10-11T05:51:47.245Z,15.63
2022-10-11T05:54:13.792Z,15.60
2022-10-11T05:56:40.320Z,15.61
2022-10-11T05:59:06.855Z,15.62
2022-10-11T06:01:33.497Z,15.54
2022-10-11T06:04:00.057Z,15.53
2022-10-11T06:06:26.609Z,15.55
2022-10-11T06:08:53.134Z,15.59
2022-10-11T06:11:22.531Z,15.67
2022-10-11T06:13:49.113Z,15.65
2022-10-11T06:16:16.251Z,15.68
2022-10-11T06:18:42.763Z,15.63
2022-10-11T06:21:09.391Z,15.58
2022-10-11T06:23:36.011Z,15.64
2022-10-11T06:26:06.874Z,15.65
2022-10-11T06:28:35.381Z,15.66
2022-10-11T07:43:29.544Z,17.60
2022-10-11T07:46:18.253Z,18.36
2022-10-11T07:48:44.846Z,20.03
2022-10-11T07:51:17.396Z,20.55
2022-10-11T07:53:48.812Z,18.16
2022-10-11T08:15:48.943Z,22.09
2022-10-11T08:18:15.558Z,22.11
2022-10-11T08:20:42.108Z,22.19
2022-10-11T08:23:09.439Z,22.36
2022-10-11T08:25:40.235Z,22.53
2022-10-11T08:28:07.523Z,22.56
2022-10-11T08:30:34.494Z,22.51
2022-10-11T08:33:04.991Z,22.55
2022-10-11T08:35:34.194Z,22.55
2022-10-11T08:38:00.690Z,22.52
2022-10-11T08:40:30.377Z,22.50
2022-10-11T08:43:14.042Z,22.53
2022-10-11T08:45:50.592Z,22.55
2022-10-11T08:48:20.222Z,22.56
2022-10-11T08:50:47.908Z,22.58
2022-10-11T08:53:39.923Z,22.58
2022-10-11T08:56:07.150Z,22.58
2022-10-11T08:58:49.393Z,22.56
2022-10-11T09:01:18.923Z,22.56
2022-10-11T09:03:47.135Z,22.59
2022-10-11T09:06:43.864Z,22.59
2022-10-11T09:09:27.649Z,22.65
2022-10-11T09:12:06.313Z,22.68
2022-10-11T09:15:22.175Z,22.68
2022-10-11T09:17:54.530Z,22.70
2022-10-11T09:20:39.747Z,22.65
2022-10-11T09:23:47.930Z,22.61
2022-10-11T09:26:23.018Z,22.61
2022-10-11T09:29:06.814Z,22.59
2022-10-11T09:31:33.466Z,22.68
2022-10-11T09:34:08.737Z,22.61
2022-10-11T09:37:00.533Z,22.63
2022-10-11T09:39:37.488Z,22.70
2022-10-11T09:42:05.822Z,22.79
2022-10-11T09:44:46.907Z,22.69
2022-10-11T09:47:18.676Z,22.71
2022-10-11T09:49:49.539Z,22.69
2022-10-11T09:52:18.494Z,22.81
2022-10-11T09:54:47.867Z,22.78
2022-10-11T09:57:20.834Z,22.75
2022-10-11T10:00:11.941Z,22.68
2022-10-11T10:02:55.660Z,22.60
2022-10-11T10:05:23.150Z,22.66
2022-10-11T10:08:09.928Z,22.78
2022-10-11T10:10:42.807Z,22.74
2022-10-11T10:13:25.820Z,22.77
2022-10-11T10:15:55.852Z,22.83
2022-10-11T15:39:12.874Z,32.41
2022-10-11T15:41:39.430Z,31.98
2022-10-11T15:44:05.928Z,32.49
2022-10-11T15:46:32.459Z,32.76
2022-10-11T15:49:02.178Z,33.01
2022-10-11T15:51:31.090Z,33.19
2022-10-11T15:53:57.623Z,32.38
2022-10-11T15:56:24.168Z,31.56
2022-10-11T15:58:50.717Z,30.58
2022-10-11T16:03:30.076Z,29.56
2022-10-11T16:06:01.154Z,29.77
2022-10-11T16:08:31.376Z,29.54
2022-10-11T16:10:58.846Z,29.34
2022-10-11T16:14:29.398Z,28.57
2022-10-11T16:16:55.986Z,28.48
2022-10-11T16:19:22.630Z,29.09
2022-10-11T16:21:49.115Z,29.09
2022-10-11T16:24:15.622Z,29.16
2022-10-11T16:26:42.122Z,28.21
2022-10-11T16:29:08.642Z,27.35
2022-10-11T16:31:35.142Z,26.88
2022-10-11T16:34:01.930Z,26.70
2022-10-11T16:36:40.660Z,26.42
2022-10-11T16:39:16.389Z,26.16
2022-10-11T16:41:42.953Z,25.95
2022-10-11T16:44:18.315Z,25.67
2022-10-11T16:46:49.146Z,25.68
2022-10-11T16:49:21.930Z,25.50
2022-10-11T16:51:49.255Z,25.34
2022-10-11T16:54:20.624Z,25.20
2022-10-11T16:56:48.760Z,25.10
2022-10-11T16:59:15.485Z,24.85
2022-10-11T17:01:42.391Z,24.79
2022-10-11T17:04:09.779Z,24.61
2022-10-11T17:06:36.353Z,24.76
2022-10-11T17:09:03.911Z,24.73
2022-10-11T17:11:30.535Z,24.52
2022-10-11T17:13:57.124Z,24.40
2022-10-11T17:16:23.903Z,24.32
2022-10-11T17:18:50.910Z,24.25
2022-10-11T17:21:18.671Z,24.23
2022-10-11T17:23:45.384Z,24.13
2022-10-11T17:26:24.741Z,24.02
2022-10-11T17:28:51.390Z,23.95
2022-10-11T17:31:17.980Z,24.01
2022-10-11T17:33:44.770Z,24.02
2022-10-11T17:36:20.415Z,23.89
2022-10-11T17:38:47.758Z,23.82
2022-10-11T17:41:14.507Z,23.80
2022-10-11T17:43:41.062Z,23.67
2022-10-11T17:46:09.188Z,23.69
2022-10-11T17:48:37.099Z,23.64
2022-10-11T17:51:11.369Z,23.65
2022-10-11T17:53:38.396Z,23.66
2022-10-11T17:56:07.651Z,23.51
2022-10-11T17:58:34.382Z,23.64
2022-10-11T18:01:04.052Z,23.54
2022-10-11T18:03:31.170Z,23.45
2022-10-11T18:05:57.709Z,23.41
2022-10-11T18:08:24.329Z,23.33
2022-10-11T18:10:50.810Z,23.36
2022-10-11T18:13:17.603Z,23.30
2022-10-11T18:15:44.109Z,23.26
2022-10-11T18:18:11.690Z,23.13
2022-10-11T18:20:38.264Z,22.97
2022-10-11T18:23:04.841Z,22.96
2022-10-11T18:25:33.551Z,22.85
2022-10-11T18:28:00.049Z,22.77
2022-10-11T18:30:26.608Z,22.77
2022-10-11T18:32:53.157Z,22.58
2022-10-11T18:35:19.677Z,22.63
2022-10-11T18:37:46.217Z,22.57
2022-10-11T18:40:12.686Z,22.50
2022-10-11T18:42:39.201Z,22.54
2022-10-11T18:45:06.630Z,22.44
2022-10-11T18:47:33.140Z,22.34
2022-10-11T18:49:59.670Z,22.35
2022-10-11T18:52:26.243Z,21.49
2022-10-11T18:54:52.721Z,20.64
2022-10-11T18:57:19.340Z,20.24
2022-10-11T18:59:46.103Z,20.25
2022-10-11T19:02:12.799Z,19.98
2022-10-11T19:04:39.589Z,19.58
2022-10-11T19:07:06.437Z,19.46
2022-10-11T19:09:32.915Z,19.19
2022-10-11T19:11:59.486Z,19.24
2022-10-11T19:14:28.577Z,19.26
2022-10-11T19:16:56.217Z,19.24
2022-10-11T19:19:30.882Z,19.04
2022-10-11T19:21:57.557Z,19.29
2022-10-11T19:24:26.479Z,19.18
2022-10-11T19:26:54.703Z,19.13
2022-10-11T19:29:24.667Z,18.87
2022-10-11T19:31:56.520Z,18.53
2022-10-11T19:34:26.814Z,18.52
2022-10-11T19:36:54.878Z,18.67
2022-10-11T19:39:22.502Z,18.43
2022-10-11T19:41:49.327Z,18.43
2022-10-11T19:44:16.718Z,18.31
2022-10-11T19:46:51.423Z,18.31
2022-10-11T19:49:21.495Z,18.34
2022-10-11T19:51:48.039Z,18.27
2022-10-11T19:54:15.507Z,18.22
2022-10-11T19:56:42.787Z,18.60
2022-10-11T19:59:10.266Z,18.34
2022-10-11T20:01:37.367Z,18.06
2022-10-11T20:04:06.382Z,17.88
2022-10-11T20:06:38.375Z,17.96
2022-10-11T20:09:29.554Z,17.98
2022-10-11T20:11:56.119Z,18.38
2022-10-11T20:14:22.712Z,18.34
2022-10-11T20:16:50.179Z,18.30
2022-10-11T20:19:17.198Z,17.91
2022-10-11T20:21:43.988Z,17.70
2022-10-11T20:24:10.747Z,17.75
2022-10-11T20:26:37.423Z,17.64
2022-10-11T20:29:03.936Z,17.74
2022-10-11T20:31:33.080Z,18.10
2022-10-11T20:34:02.122Z,17.96
2022-10-11T20:36:32.034Z,18.03
2022-10-11T20:38:59.451Z,17.47
2022-10-11T20:41:34.098Z,17.41
2022-10-11T20:44:01.813Z,17.58
2022-10-11T20:46:33.459Z,17.25
2022-10-11T20:49:08.307Z,17.20
2022-10-11T20:51:35.390Z,17.28
2022-10-11T20:54:02.286Z,16.95
2022-10-11T20:56:29.709Z,17.14
2022-10-11T20:58:57.216Z,17.33
2022-10-11T21:01:27.223Z,17.22
2022-10-11T21:03:54.148Z,17.30
2022-10-11T21:06:20.864Z,17.07
2022-10-11T21:08:47.415Z,17.03
2022-10-11T21:11:14.411Z,16.81
2022-10-11T21:13:40.977Z,17.00
2022-10-11T21:16:11.189Z,17.01
2022-10-11T21:18:38.052Z,17.02
2022-10-11T21:21:09.501Z,17.14
2022-10-11T21:23:36.106Z,17.04
2022-10-11T21:26:03.989Z,17.08
2022-10-11T21:28:30.898Z,17.14
2022-10-11T21:31:18.603Z,17.07
2022-10-11T21:33:45.542Z,16.86
2022-10-11T21:36:15.186Z,16.85
2022-10-11T21:38:42.052Z,16.73
2022-10-11T21:41:11.532Z,16.81
2022-10-11T21:43:38.417Z,16.82
2022-10-11T21:46:11.788Z,17.16
2022-10-11T21:48:39.164Z,17.08
2022-10-11T21:51:06.239Z,16.84
2022-10-11T21:53:33.536Z,16.83
2022-10-11T21:56:01.077Z,16.71
2022-10-11T21:58:28.092Z,16.84
2022-10-11T22:00:54.926Z,16.76
2022-10-11T22:03:21.452Z,16.74
2022-10-11T22:05:48.597Z,16.89
2022-10-11T22:08:15.399Z,17.58
2022-10-11T22:10:52.914Z,18.02
2022-10-11T22:13:19.603Z,18.26
2022-10-11T22:15:46.081Z,18.29
2022-10-11T22:18:12.606Z,18.45
2022-10-11T22:20:39.069Z,18.47
2022-10-11T22:23:05.586Z,18.51
2022-10-11T22:25:35.294Z,18.51
2022-10-11T22:28:02.034Z,18.52
2022-10-11T22:30:29.319Z,18.52
2022-10-11T22:32:55.879Z,18.48
2022-10-11T22:35:22.447Z,18.49
2022-10-11T22:37:50.315Z,18.52
2022-10-11T22:40:18.051Z,18.54
2022-10-11T22:42:44.673Z,18.43
2022-10-11T22:45:11.539Z,18.57
2022-10-11T22:47:38.376Z,18.54
2022-10-11T22:50:05.419Z,18.50
2022-10-11T22:52:32.022Z,18.53
2022-10-11T22:54:58.520Z,18.46
2022-10-11T22:57:25.137Z,18.53
2022-10-11T22:59:51.642Z,18.52
2022-10-11T23:02:18.222Z,18.52
2022-10-11T23:04:44.763Z,18.54
2022-10-11T23:07:11.251Z,18.53
2022-10-11T23:09:37.761Z,18.46
2022-10-11T23:12:04.541Z,18.45
2022-10-11T23:14:31.057Z,18.43
2022-10-11T23:16:57.567Z,18.43
2022-10-11T23:19:24.099Z,18.50
2022-10-11T23:21:50.616Z,18.46
2022-10-11T23:24:17.147Z,18.47
2022-10-11T23:26:43.696Z,18.45
2022-10-11T23:29:10.207Z,18.39
2022-10-11T23:31:36.696Z,18.41
2022-10-11T23:34:03.201Z,18.37
2022-10-11T23:36:29.790Z,18.41
2022-10-11T23:38:58.174Z,18.37
2022-10-11T23:41:27.177Z,18.41
2022-10-11T23:43:53.707Z,18.39
2022-10-11T23:46:20.604Z,18.40
2022-10-11T23:48:47.424Z,18.36
2022-10-11T23:51:14.052Z,18.34
2022-10-11T23:53:40.565Z,18.35
2022-10-11T23:56:07.650Z,18.35
2022-10-11T23:58:34.334Z,18.37
